sensor_id;sensor_type;location;lat;lon;timestamp;P1;durP1;ratioP1;P2;durP2;ratioP2
51618;SDS011;38518;53.164;5.430;2024-02-28T00:01:50;6.10;;;3.80;;
51618;SDS011;38518;53.164;5.430;2024-02-28T00:04:16;7.00;;;4.13;;
51618;SDS011;38518;53.164;5.430;2024-02-28T00:06:42;5.55;;;4.20;;
51618;SDS011;38518;53.164;5.430;2024-02-28T00:09:07;6.90;;;4.30;;
51618;SDS011;38518;53.164;5.430;2024-02-28T00:11:33;7.10;;;4.70;;
51618;SDS011;38518;53.164;5.430;2024-02-28T00:13:59;9.25;;;4.20;;
51618;SDS011;38518;53.164;5.430;2024-02-28T00:16:25;7.75;;;4.50;;
51618;SDS011;38518;53.164;5.430;2024-02-28T00:18:51;6.72;;;4.55;;
51618;SDS011;38518;53.164;5.430;2024-02-28T00:21:16;6.60;;;4.55;;
51618;SDS011;38518;53.164;5.430;2024-02-28T00:23:42;6.20;;;4.90;;
51618;SDS011;38518;53.164;5.430;2024-02-28T00:26:08;8.57;;;5.20;;
51618;SDS011;38518;53.164;5.430;2024-02-28T00:28:34;8.07;;;4.85;;
51618;SDS011;38518;53.164;5.430;2024-02-28T00:31:00;11.45;;;6.95;;
51618;SDS011;38518;53.164;5.430;2024-02-28T00:33:25;10.98;;;5.47;;
51618;SDS011;38518;53.164;5.430;2024-02-28T00:35:51;6.80;;;5.40;;
51618;SDS011;38518;53.164;5.430;2024-02-28T00:38:19;8.07;;;6.28;;
51618;SDS011;38518;53.164;5.430;2024-02-28T00:40:44;9.70;;;5.85;;
51618;SDS011;38518;53.164;5.430;2024-02-28T00:43:10;10.23;;;6.85;;
51618;SDS011;38518;53.164;5.430;2024-02-28T00:45:36;11.65;;;6.15;;
51618;SDS011;38518;53.164;5.430;2024-02-28T00:48:01;8.73;;;6.88;;
51618;SDS011;38518;53.164;5.430;2024-02-28T00:50:27;7.63;;;6.50;;
51618;SDS011;38518;53.164;5.430;2024-02-28T00:52:53;6.65;;;5.68;;
51618;SDS011;38518;53.164;5.430;2024-02-28T00:55:19;10.68;;;6.80;;
51618;SDS011;38518;53.164;5.430;2024-02-28T00:57:45;10.73;;;7.28;;
51618;SDS011;38518;53.164;5.430;2024-02-28T01:00:11;9.43;;;5.53;;
51618;SDS011;38518;53.164;5.430;2024-02-28T01:02:37;8.32;;;5.50;;
51618;SDS011;38518;53.164;5.430;2024-02-28T01:05:02;9.82;;;6.85;;
51618;SDS011;38518;53.164;5.430;2024-02-28T01:07:28;10.95;;;7.53;;
51618;SDS011;38518;53.164;5.430;2024-02-28T01:09:54;8.35;;;6.28;;
51618;SDS011;38518;53.164;5.430;2024-02-28T01:12:20;9.25;;;6.35;;
51618;SDS011;38518;53.164;5.430;2024-02-28T01:14:46;9.27;;;6.63;;
51618;SDS011;38518;53.164;5.430;2024-02-28T01:17:12;7.35;;;6.00;;
51618;SDS011;38518;53.164;5.430;2024-02-28T01:19:38;8.07;;;5.85;;
51618;SDS011;38518;53.164;5.430;2024-02-28T01:22:04;9.50;;;7.70;;
51618;SDS011;38518;53.164;5.430;2024-02-28T01:24:29;9.18;;;6.22;;
51618;SDS011;38518;53.164;5.430;2024-02-28T01:26:55;8.35;;;7.20;;
51618;SDS011;38518;53.164;5.430;2024-02-28T01:29:21;10.45;;;5.85;;
51618;SDS011;38518;53.164;5.430;2024-02-28T01:31:47;8.63;;;6.18;;
51618;SDS011;38518;53.164;5.430;2024-02-28T01:34:12;7.90;;;5.97;;
51618;SDS011;38518;53.164;5.430;2024-02-28T01:36:38;11.93;;;6.53;;
51618;SDS011;38518;53.164;5.430;2024-02-28T01:39:04;8.68;;;6.47;;
51618;SDS011;38518;53.164;5.430;2024-02-28T01:41:30;7.80;;;5.97;;
51618;SDS011;38518;53.164;5.430;2024-02-28T01:43:55;10.68;;;7.60;;
51618;SDS011;38518;53.164;5.430;2024-02-28T01:46:25;7.78;;;5.80;;
51618;SDS011;38518;53.164;5.430;2024-02-28T01:48:52;10.25;;;7.53;;
51618;SDS011;38518;53.164;5.430;2024-02-28T01:51:20;8.65;;;5.93;;
51618;SDS011;38518;53.164;5.430;2024-02-28T01:53:50;12.88;;;6.07;;
51618;SDS011;38518;53.164;5.430;2024-02-28T01:56:17;8.40;;;6.13;;
51618;SDS011;38518;53.164;5.430;2024-02-28T01:58:45;10.23;;;6.22;;
51618;SDS011;38518;53.164;5.430;2024-02-28T02:01:13;10.25;;;6.65;;
51618;SDS011;38518;53.164;5.430;2024-02-28T02:03:39;8.32;;;6.40;;
51618;SDS011;38518;53.164;5.430;2024-02-28T02:06:05;12.10;;;6.18;;
51618;SDS011;38518;53.164;5.430;2024-02-28T02:08:32;9.65;;;7.22;;
51618;SDS011;38518;53.164;5.430;2024-02-28T02:10:58;14.32;;;7.20;;
51618;SDS011;38518;53.164;5.430;2024-02-28T02:13:24;11.63;;;8.30;;
51618;SDS011;38518;53.164;5.430;2024-02-28T02:15:50;11.82;;;7.22;;
51618;SDS011;38518;53.164;5.430;2024-02-28T02:18:19;10.60;;;7.80;;
51618;SDS011;38518;53.164;5.430;2024-02-28T02:20:49;8.10;;;6.45;;
51618;SDS011;38518;53.164;5.430;2024-02-28T02:23:19;12.95;;;6.60;;
51618;SDS011;38518;53.164;5.430;2024-02-28T02:25:45;10.43;;;6.82;;
51618;SDS011;38518;53.164;5.430;2024-02-28T02:28:12;9.40;;;6.35;;
51618;SDS011;38518;53.164;5.430;2024-02-28T02:30:38;9.50;;;6.18;;
51618;SDS011;38518;53.164;5.430;2024-02-28T02:33:08;9.60;;;6.47;;
51618;SDS011;38518;53.164;5.430;2024-02-28T02:35:33;11.25;;;6.80;;
51618;SDS011;38518;53.164;5.430;2024-02-28T02:38:00;10.82;;;6.50;;
51618;SDS011;38518;53.164;5.430;2024-02-28T02:40:25;11.98;;;6.95;;
51618;SDS011;38518;53.164;5.430;2024-02-28T02:42:51;11.95;;;7.22;;
51618;SDS011;38518;53.164;5.430;2024-02-28T02:45:17;15.75;;;9.45;;
51618;SDS011;38518;53.164;5.430;2024-02-28T02:47:43;15.93;;;7.85;;
51618;SDS011;38518;53.164;5.430;2024-02-28T02:50:11;14.85;;;7.85;;
51618;SDS011;38518;53.164;5.430;2024-02-28T02:52:37;17.00;;;9.27;;
51618;SDS011;38518;53.164;5.430;2024-02-28T02:55:03;16.92;;;9.45;;
51618;SDS011;38518;53.164;5.430;2024-02-28T02:57:29;16.33;;;10.30;;
51618;SDS011;38518;53.164;5.430;2024-02-28T02:59:57;16.50;;;12.35;;
51618;SDS011;38518;53.164;5.430;2024-02-28T03:02:22;13.95;;;9.90;;
51618;SDS011;38518;53.164;5.430;2024-02-28T03:04:48;17.13;;;10.52;;
51618;SDS011;38518;53.164;5.430;2024-02-28T03:07:14;18.40;;;10.57;;
51618;SDS011;38518;53.164;5.430;2024-02-28T03:09:40;15.32;;;10.00;;
51618;SDS011;38518;53.164;5.430;2024-02-28T03:12:06;19.00;;;12.40;;
51618;SDS011;38518;53.164;5.430;2024-02-28T03:14:32;14.40;;;10.13;;
51618;SDS011;38518;53.164;5.430;2024-02-28T03:16:58;20.45;;;15.30;;
51618;SDS011;38518;53.164;5.430;2024-02-28T03:19:24;18.52;;;13.30;;
51618;SDS011;38518;53.164;5.430;2024-02-28T03:21:49;18.45;;;12.73;;
51618;SDS011;38518;53.164;5.430;2024-02-28T03:24:15;19.35;;;12.75;;
51618;SDS011;38518;53.164;5.430;2024-02-28T03:26:42;20.42;;;12.60;;
51618;SDS011;38518;53.164;5.430;2024-02-28T03:29:08;19.98;;;16.92;;
51618;SDS011;38518;53.164;5.430;2024-02-28T03:31:34;20.42;;;12.85;;
51618;SDS011;38518;53.164;5.430;2024-02-28T03:34:00;18.40;;;13.52;;
51618;SDS011;38518;53.164;5.430;2024-02-28T03:36:27;18.17;;;13.73;;
51618;SDS011;38518;53.164;5.430;2024-02-28T03:38:53;22.17;;;14.43;;
51618;SDS011;38518;53.164;5.430;2024-02-28T03:41:19;20.98;;;14.10;;
51618;SDS011;38518;53.164;5.430;2024-02-28T03:43:45;19.33;;;15.30;;
51618;SDS011;38518;53.164;5.430;2024-02-28T03:46:11;29.60;;;15.30;;
51618;SDS011;38518;53.164;5.430;2024-02-28T03:48:37;25.75;;;22.45;;
51618;SDS011;38518;53.164;5.430;2024-02-28T03:51:03;23.98;;;15.90;;
51618;SDS011;38518;53.164;5.430;2024-02-28T03:53:29;23.75;;;17.55;;
51618;SDS011;38518;53.164;5.430;2024-02-28T03:55:55;25.63;;;19.05;;
51618;SDS011;38518;53.164;5.430;2024-02-28T03:58:20;26.25;;;18.08;;
51618;SDS011;38518;53.164;5.430;2024-02-28T04:00:46;30.10;;;19.65;;
51618;SDS011;38518;53.164;5.430;2024-02-28T04:03:12;34.28;;;19.90;;
51618;SDS011;38518;53.164;5.430;2024-02-28T04:05:39;31.48;;;27.48;;
51618;SDS011;38518;53.164;5.430;2024-02-28T04:08:05;35.45;;;29.30;;
51618;SDS011;38518;53.164;5.430;2024-02-28T04:10:31;34.13;;;22.10;;
51618;SDS011;38518;53.164;5.430;2024-02-28T04:12:57;34.88;;;21.35;;
51618;SDS011;38518;53.164;5.430;2024-02-28T04:15:22;40.33;;;31.20;;
51618;SDS011;38518;53.164;5.430;2024-02-28T04:17:51;35.22;;;22.80;;
51618;SDS011;38518;53.164;5.430;2024-02-28T04:20:17;37.17;;;28.80;;
51618;SDS011;38518;53.164;5.430;2024-02-28T04:22:42;36.85;;;23.52;;
51618;SDS011;38518;53.164;5.430;2024-02-28T04:25:09;34.03;;;22.10;;
51618;SDS011;38518;53.164;5.430;2024-02-28T04:27:35;34.60;;;23.05;;
51618;SDS011;38518;53.164;5.430;2024-02-28T04:30:02;34.80;;;22.92;;
51618;SDS011;38518;53.164;5.430;2024-02-28T04:32:28;44.63;;;34.20;;
51618;SDS011;38518;53.164;5.430;2024-02-28T04:34:53;40.28;;;25.45;;
51618;SDS011;38518;53.164;5.430;2024-02-28T04:37:22;38.53;;;24.05;;
51618;SDS011;38518;53.164;5.430;2024-02-28T04:39:48;42.17;;;33.28;;
51618;SDS011;38518;53.164;5.430;2024-02-28T04:42:15;43.50;;;24.25;;
51618;SDS011;38518;53.164;5.430;2024-02-28T04:44:41;43.17;;;23.13;;
51618;SDS011;38518;53.164;5.430;2024-02-28T04:47:07;39.33;;;24.20;;
51618;SDS011;38518;53.164;5.430;2024-02-28T04:49:36;47.42;;;33.33;;
51618;SDS011;38518;53.164;5.430;2024-02-28T04:52:02;37.25;;;23.63;;
51618;SDS011;38518;53.164;5.430;2024-02-28T04:54:28;43.53;;;23.88;;
51618;SDS011;38518;53.164;5.430;2024-02-28T04:56:54;37.97;;;22.40;;
51618;SDS011;38518;53.164;5.430;2024-02-28T04:59:19;47.75;;;33.00;;
51618;SDS011;38518;53.164;5.430;2024-02-28T05:01:45;41.72;;;29.52;;
51618;SDS011;38518;53.164;5.430;2024-02-28T05:04:11;41.85;;;29.75;;
51618;SDS011;38518;53.164;5.430;2024-02-28T05:06:37;33.35;;;21.15;;
51618;SDS011;38518;53.164;5.430;2024-02-28T05:09:02;36.00;;;22.10;;
51618;SDS011;38518;53.164;5.430;2024-02-28T05:11:28;33.25;;;21.65;;
51618;SDS011;38518;53.164;5.430;2024-02-28T05:13:54;32.38;;;20.42;;
51618;SDS011;38518;53.164;5.430;2024-02-28T05:16:20;36.05;;;21.95;;
51618;SDS011;38518;53.164;5.430;2024-02-28T05:18:45;31.48;;;19.30;;
51618;SDS011;38518;53.164;5.430;2024-02-28T05:21:12;32.00;;;19.50;;
51618;SDS011;38518;53.164;5.430;2024-02-28T05:23:38;38.65;;;23.92;;
51618;SDS011;38518;53.164;5.430;2024-02-28T05:26:04;34.50;;;22.13;;
51618;SDS011;38518;53.164;5.430;2024-02-28T05:28:32;38.38;;;29.95;;
51618;SDS011;38518;53.164;5.430;2024-02-28T05:31:00;34.55;;;23.48;;
51618;SDS011;38518;53.164;5.430;2024-02-28T05:33:46;35.92;;;22.20;;
51618;SDS011;38518;53.164;5.430;2024-02-28T05:36:12;38.72;;;23.13;;
51618;SDS011;38518;53.164;5.430;2024-02-28T05:38:38;38.70;;;23.98;;
51618;SDS011;38518;53.164;5.430;2024-02-28T05:41:03;47.95;;;33.70;;
51618;SDS011;38518;53.164;5.430;2024-02-28T05:43:29;37.55;;;23.65;;
51618;SDS011;38518;53.164;5.430;2024-02-28T05:45:55;37.97;;;24.15;;
51618;SDS011;38518;53.164;5.430;2024-02-28T05:48:20;52.05;;;35.95;;
51618;SDS011;38518;53.164;5.430;2024-02-28T05:50:46;41.67;;;23.85;;
51618;SDS011;38518;53.164;5.430;2024-02-28T05:53:12;59.03;;;36.53;;
51618;SDS011;38518;53.164;5.430;2024-02-28T05:55:38;45.50;;;31.77;;
51618;SDS011;38518;53.164;5.430;2024-02-28T05:58:04;39.00;;;23.88;;
51618;SDS011;38518;53.164;5.430;2024-02-28T06:00:30;38.05;;;23.27;;
51618;SDS011;38518;53.164;5.430;2024-02-28T06:02:55;45.65;;;31.63;;
51618;SDS011;38518;53.164;5.430;2024-02-28T06:05:21;59.28;;;23.23;;
51618;SDS011;38518;53.164;5.430;2024-02-28T06:07:47;39.25;;;22.73;;
51618;SDS011;38518;53.164;5.430;2024-02-28T06:10:12;36.92;;;20.88;;
51618;SDS011;38518;53.164;5.430;2024-02-28T06:12:38;41.50;;;22.73;;
51618;SDS011;38518;53.164;5.430;2024-02-28T06:15:05;41.67;;;28.92;;
51618;SDS011;38518;53.164;5.430;2024-02-28T06:17:30;41.03;;;21.75;;
51618;SDS011;38518;53.164;5.430;2024-02-28T06:19:56;37.65;;;21.05;;
51618;SDS011;38518;53.164;5.430;2024-02-28T06:22:22;43.15;;;24.33;;
51618;SDS011;38518;53.164;5.430;2024-02-28T06:24:48;42.42;;;25.75;;
51618;SDS011;38518;53.164;5.430;2024-02-28T06:27:14;47.00;;;25.23;;
51618;SDS011;38518;53.164;5.430;2024-02-28T06:29:40;46.00;;;30.73;;
51618;SDS011;38518;53.164;5.430;2024-02-28T06:32:06;42.58;;;23.50;;
51618;SDS011;38518;53.164;5.430;2024-02-28T06:34:32;41.10;;;23.95;;
51618;SDS011;38518;53.164;5.430;2024-02-28T06:36:58;40.05;;;20.85;;
51618;SDS011;38518;53.164;5.430;2024-02-28T06:39:23;49.85;;;30.48;;
51618;SDS011;38518;53.164;5.430;2024-02-28T06:41:49;42.10;;;25.70;;
51618;SDS011;38518;53.164;5.430;2024-02-28T06:44:18;39.47;;;22.75;;
51618;SDS011;38518;53.164;5.430;2024-02-28T06:46:44;38.72;;;21.17;;
51618;SDS011;38518;53.164;5.430;2024-02-28T06:49:10;45.30;;;22.85;;
51618;SDS011;38518;53.164;5.430;2024-02-28T06:51:35;44.10;;;22.20;;
51618;SDS011;38518;53.164;5.430;2024-02-28T06:54:01;36.70;;;21.77;;
51618;SDS011;38518;53.164;5.430;2024-02-28T06:56:28;35.05;;;22.02;;
51618;SDS011;38518;53.164;5.430;2024-02-28T06:58:54;38.83;;;21.70;;
51618;SDS011;38518;53.164;5.430;2024-02-28T07:01:20;47.75;;;32.25;;
51618;SDS011;38518;53.164;5.430;2024-02-28T07:03:46;44.25;;;23.88;;
51618;SDS011;38518;53.164;5.430;2024-02-28T07:06:11;43.85;;;23.35;;
51618;SDS011;38518;53.164;5.430;2024-02-28T07:08:37;44.17;;;25.58;;
51618;SDS011;38518;53.164;5.430;2024-02-28T07:11:03;43.58;;;24.98;;
51618;SDS011;38518;53.164;5.430;2024-02-28T07:13:29;45.42;;;26.98;;
51618;SDS011;38518;53.164;5.430;2024-02-28T07:15:55;51.92;;;33.17;;
51618;SDS011;38518;53.164;5.430;2024-02-28T07:18:23;49.78;;;28.15;;
51618;SDS011;38518;53.164;5.430;2024-02-28T07:20:53;54.10;;;38.50;;
51618;SDS011;38518;53.164;5.430;2024-02-28T07:23:19;49.83;;;40.35;;
51618;SDS011;38518;53.164;5.430;2024-02-28T07:25:46;48.67;;;29.63;;
51618;SDS011;38518;53.164;5.430;2024-02-28T07:28:12;48.33;;;30.08;;
51618;SDS011;38518;53.164;5.430;2024-02-28T07:30:38;56.00;;;39.60;;
51618;SDS011;38518;53.164;5.430;2024-02-28T07:33:07;56.15;;;41.38;;
51618;SDS011;38518;53.164;5.430;2024-02-28T07:35:43;51.35;;;29.88;;
51618;SDS011;38518;53.164;5.430;2024-02-28T07:38:09;46.00;;;29.90;;
51618;SDS011;38518;53.164;5.430;2024-02-28T07:40:35;46.30;;;30.20;;
51618;SDS011;38518;53.164;5.430;2024-02-28T07:43:01;44.90;;;29.27;;
51618;SDS011;38518;53.164;5.430;2024-02-28T07:45:27;51.85;;;31.23;;
51618;SDS011;38518;53.164;5.430;2024-02-28T07:47:53;48.88;;;29.45;;
51618;SDS011;38518;53.164;5.430;2024-02-28T07:50:19;48.35;;;28.55;;
51618;SDS011;38518;53.164;5.430;2024-02-28T07:52:44;51.20;;;37.50;;
51618;SDS011;38518;53.164;5.430;2024-02-28T07:55:10;47.47;;;35.38;;
51618;SDS011;38518;53.164;5.430;2024-02-28T07:57:36;44.78;;;28.50;;
51618;SDS011;38518;53.164;5.430;2024-02-28T08:00:02;39.10;;;32.47;;
51618;SDS011;38518;53.164;5.430;2024-02-28T08:02:28;48.92;;;26.30;;
51618;SDS011;38518;53.164;5.430;2024-02-28T08:04:54;44.28;;;33.08;;
51618;SDS011;38518;53.164;5.430;2024-02-28T08:07:20;40.95;;;23.48;;
51618;SDS011;38518;53.164;5.430;2024-02-28T08:09:45;43.15;;;23.75;;
51618;SDS011;38518;53.164;5.430;2024-02-28T08:12:11;43.13;;;24.88;;
51618;SDS011;38518;53.164;5.430;2024-02-28T08:14:37;38.70;;;23.67;;
51618;SDS011;38518;53.164;5.430;2024-02-28T08:17:03;36.05;;;21.98;;
51618;SDS011;38518;53.164;5.430;2024-02-28T08:19:28;34.28;;;22.08;;
51618;SDS011;38518;53.164;5.430;2024-02-28T08:21:54;41.25;;;28.35;;
51618;SDS011;38518;53.164;5.430;2024-02-28T08:24:20;39.65;;;22.08;;
51618;SDS011;38518;53.164;5.430;2024-02-28T08:26:49;39.35;;;28.50;;
51618;SDS011;38518;53.164;5.430;2024-02-28T08:29:14;35.13;;;27.40;;
51618;SDS011;38518;53.164;5.430;2024-02-28T08:31:41;39.08;;;21.85;;
51618;SDS011;38518;53.164;5.430;2024-02-28T08:34:09;38.95;;;21.67;;
51618;SDS011;38518;53.164;5.430;2024-02-28T08:36:35;35.13;;;26.85;;
51618;SDS011;38518;53.164;5.430;2024-02-28T08:39:02;37.67;;;27.33;;
51618;SDS011;38518;53.164;5.430;2024-02-28T08:41:31;37.70;;;20.58;;
51618;SDS011;38518;53.164;5.430;2024-02-28T08:43:59;37.55;;;21.65;;
51618;SDS011;38518;53.164;5.430;2024-02-28T08:46:25;36.08;;;25.05;;
51618;SDS011;38518;53.164;5.430;2024-02-28T08:48:50;41.58;;;22.77;;
51618;SDS011;38518;53.164;5.430;2024-02-28T08:51:16;40.40;;;22.13;;
51618;SDS011;38518;53.164;5.430;2024-02-28T08:53:42;35.88;;;21.67;;
51618;SDS011;38518;53.164;5.430;2024-02-28T08:56:08;37.28;;;22.48;;
51618;SDS011;38518;53.164;5.430;2024-02-28T08:58:33;40.40;;;29.02;;
51618;SDS011;38518;53.164;5.430;2024-02-28T09:00:59;36.90;;;23.25;;
51618;SDS011;38518;53.164;5.430;2024-02-28T09:03:25;38.85;;;23.05;;
51618;SDS011;38518;53.164;5.430;2024-02-28T09:05:51;38.78;;;27.13;;
51618;SDS011;38518;53.164;5.430;2024-02-28T09:08:17;39.78;;;22.65;;
51618;SDS011;38518;53.164;5.430;2024-02-28T09:10:43;37.25;;;28.40;;
51618;SDS011;38518;53.164;5.430;2024-02-28T09:13:09;36.70;;;29.08;;
51618;SDS011;38518;53.164;5.430;2024-02-28T09:15:37;43.13;;;23.20;;
51618;SDS011;38518;53.164;5.430;2024-02-28T09:18:03;37.90;;;23.50;;
51618;SDS011;38518;53.164;5.430;2024-02-28T09:20:31;37.63;;;28.15;;
51618;SDS011;38518;53.164;5.430;2024-02-28T09:22:57;36.70;;;22.67;;
51618;SDS011;38518;53.164;5.430;2024-02-28T09:25:22;32.33;;;22.52;;
51618;SDS011;38518;53.164;5.430;2024-02-28T09:27:48;35.00;;;25.52;;
51618;SDS011;38518;53.164;5.430;2024-02-28T09:30:14;33.30;;;24.55;;
51618;SDS011;38518;53.164;5.430;2024-02-28T09:32:40;31.83;;;24.08;;
51618;SDS011;38518;53.164;5.430;2024-02-28T09:35:08;33.58;;;19.17;;
51618;SDS011;38518;53.164;5.430;2024-02-28T09:37:36;34.67;;;19.98;;
51618;SDS011;38518;53.164;5.430;2024-02-28T09:40:02;30.08;;;23.42;;
51618;SDS011;38518;53.164;5.430;2024-02-28T09:42:30;33.17;;;24.52;;
51618;SDS011;38518;53.164;5.430;2024-02-28T09:44:56;31.40;;;25.23;;
51618;SDS011;38518;53.164;5.430;2024-02-28T09:47:26;32.13;;;24.35;;
51618;SDS011;38518;53.164;5.430;2024-02-28T09:49:52;34.72;;;21.17;;
51618;SDS011;38518;53.164;5.430;2024-02-28T09:52:20;35.00;;;20.17;;
51618;SDS011;38518;53.164;5.430;2024-02-28T09:54:48;31.95;;;25.08;;
51618;SDS011;38518;53.164;5.430;2024-02-28T09:57:14;32.25;;;24.58;;
51618;SDS011;38518;53.164;5.430;2024-02-28T09:59:40;31.80;;;25.02;;
51618;SDS011;38518;53.164;5.430;2024-02-28T10:02:07;31.55;;;19.02;;
51618;SDS011;38518;53.164;5.430;2024-02-28T10:04:35;29.23;;;23.60;;
51618;SDS011;38518;53.164;5.430;2024-02-28T10:07:14;30.52;;;22.85;;
51618;SDS011;38518;53.164;5.430;2024-02-28T10:09:43;28.30;;;22.63;;
51618;SDS011;38518;53.164;5.430;2024-02-28T10:12:09;30.23;;;21.90;;
51618;SDS011;38518;53.164;5.430;2024-02-28T10:14:35;27.48;;;21.20;;
51618;SDS011;38518;53.164;5.430;2024-02-28T10:17:02;23.23;;;18.23;;
51618;SDS011;38518;53.164;5.430;2024-02-28T10:19:28;26.90;;;19.40;;
51618;SDS011;38518;53.164;5.430;2024-02-28T10:21:55;24.70;;;20.50;;
51618;SDS011;38518;53.164;5.430;2024-02-28T10:24:20;24.75;;;20.42;;
51618;SDS011;38518;53.164;5.430;2024-02-28T10:26:49;27.33;;;22.00;;
51618;SDS011;38518;53.164;5.430;2024-02-28T10:29:21;26.80;;;22.33;;
51618;SDS011;38518;53.164;5.430;2024-02-28T10:31:56;25.02;;;22.10;;
51618;SDS011;38518;53.164;5.430;2024-02-28T10:34:22;27.83;;;22.95;;
51618;SDS011;38518;53.164;5.430;2024-02-28T10:36:48;25.15;;;22.30;;
51618;SDS011;38518;53.164;5.430;2024-02-28T10:39:14;26.30;;;23.02;;
51618;SDS011;38518;53.164;5.430;2024-02-28T10:41:41;25.55;;;22.63;;
51618;SDS011;38518;53.164;5.430;2024-02-28T10:44:08;27.33;;;22.67;;
51618;SDS011;38518;53.164;5.430;2024-02-28T10:46:38;27.73;;;22.75;;
51618;SDS011;38518;53.164;5.430;2024-02-28T10:49:08;27.58;;;22.90;;
51618;SDS011;38518;53.164;5.430;2024-02-28T10:51:35;24.20;;;20.88;;
51618;SDS011;38518;53.164;5.430;2024-02-28T10:54:10;28.55;;;23.38;;
51618;SDS011;38518;53.164;5.430;2024-02-28T10:56:41;27.58;;;23.15;;
51618;SDS011;38518;53.164;5.430;2024-02-28T10:59:08;28.67;;;23.55;;
51618;SDS011;38518;53.164;5.430;2024-02-28T11:01:35;31.70;;;24.88;;
51618;SDS011;38518;53.164;5.430;2024-02-28T11:04:03;31.60;;;24.92;;
51618;SDS011;38518;53.164;5.430;2024-02-28T11:06:29;27.95;;;24.70;;
51618;SDS011;38518;53.164;5.430;2024-02-28T11:08:55;30.10;;;26.17;;
51618;SDS011;38518;53.164;5.430;2024-02-28T11:11:29;32.30;;;26.95;;
51618;SDS011;38518;53.164;5.430;2024-02-28T11:13:58;34.40;;;27.70;;
51618;SDS011;38518;53.164;5.430;2024-02-28T11:16:31;30.75;;;27.42;;
51618;SDS011;38518;53.164;5.430;2024-02-28T11:18:58;36.38;;;28.95;;
51618;SDS011;38518;53.164;5.430;2024-02-28T11:21:27;33.22;;;28.75;;
51618;SDS011;38518;53.164;5.430;2024-02-28T11:24:00;33.60;;;28.80;;
51618;SDS011;38518;53.164;5.430;2024-02-28T11:26:26;34.22;;;28.92;;
51618;SDS011;38518;53.164;5.430;2024-02-28T11:28:56;36.55;;;28.83;;
51618;SDS011;38518;53.164;5.430;2024-02-28T11:31:21;32.28;;;28.58;;
51618;SDS011;38518;53.164;5.430;2024-02-28T11:33:47;36.70;;;29.60;;
51618;SDS011;38518;53.164;5.430;2024-02-28T11:36:13;36.97;;;30.02;;
51618;SDS011;38518;53.164;5.430;2024-02-28T11:38:40;35.95;;;30.60;;
51618;SDS011;38518;53.164;5.430;2024-02-28T11:41:06;39.55;;;31.70;;
51618;SDS011;38518;53.164;5.430;2024-02-28T11:43:32;35.30;;;30.42;;
51618;SDS011;38518;53.164;5.430;2024-02-28T11:45:59;35.22;;;31.17;;
51618;SDS011;38518;53.164;5.430;2024-02-28T11:48:26;38.50;;;32.47;;
51618;SDS011;38518;53.164;5.430;2024-02-28T11:50:56;40.83;;;33.47;;
51618;SDS011;38518;53.164;5.430;2024-02-28T11:53:24;43.83;;;35.05;;
51618;SDS011;38518;53.164;5.430;2024-02-28T11:55:53;46.58;;;33.92;;
51618;SDS011;38518;53.164;5.430;2024-02-28T11:58:21;42.40;;;34.65;;
51618;SDS011;38518;53.164;5.430;2024-02-28T12:00:47;40.58;;;34.45;;
51618;SDS011;38518;53.164;5.430;2024-02-28T12:03:20;41.63;;;29.92;;
51618;SDS011;38518;53.164;5.430;2024-02-28T12:05:49;40.85;;;34.90;;
51618;SDS011;38518;53.164;5.430;2024-02-28T12:08:18;42.53;;;33.90;;
51618;SDS011;38518;53.164;5.430;2024-02-28T12:10:48;39.22;;;28.88;;
51618;SDS011;38518;53.164;5.430;2024-02-28T12:13:17;35.67;;;31.65;;
51618;SDS011;38518;53.164;5.430;2024-02-28T12:15:43;34.72;;;28.30;;
51618;SDS011;38518;53.164;5.430;2024-02-28T12:18:11;35.35;;;31.48;;
51618;SDS011;38518;53.164;5.430;2024-02-28T12:20:37;38.63;;;32.72;;
51618;SDS011;38518;53.164;5.430;2024-02-28T12:23:03;38.90;;;32.17;;
51618;SDS011;38518;53.164;5.430;2024-02-28T12:25:30;34.72;;;31.23;;
51618;SDS011;38518;53.164;5.430;2024-02-28T12:27:56;38.08;;;32.88;;
51618;SDS011;38518;53.164;5.430;2024-02-28T12:30:21;36.88;;;26.67;;
51618;SDS011;38518;53.164;5.430;2024-02-28T12:32:47;35.65;;;31.83;;
51618;SDS011;38518;53.164;5.430;2024-02-28T12:35:13;35.20;;;31.13;;
51618;SDS011;38518;53.164;5.430;2024-02-28T12:37:38;34.72;;;30.77;;
51618;SDS011;38518;53.164;5.430;2024-02-28T12:40:05;34.97;;;31.30;;
51618;SDS011;38518;53.164;5.430;2024-02-28T12:42:34;37.75;;;32.47;;
51618;SDS011;38518;53.164;5.430;2024-02-28T12:45:01;37.35;;;30.73;;
51618;SDS011;38518;53.164;5.430;2024-02-28T12:47:28;34.72;;;31.02;;
51618;SDS011;38518;53.164;5.430;2024-02-28T12:49:56;35.33;;;31.00;;
51618;SDS011;38518;53.164;5.430;2024-02-28T12:52:22;33.63;;;30.17;;
51618;SDS011;38518;53.164;5.430;2024-02-28T12:54:49;35.90;;;31.90;;
51618;SDS011;38518;53.164;5.430;2024-02-28T12:57:15;33.92;;;25.98;;
51618;SDS011;38518;53.164;5.430;2024-02-28T12:59:41;36.85;;;32.83;;
51618;SDS011;38518;53.164;5.430;2024-02-28T13:02:08;35.45;;;31.70;;
51618;SDS011;38518;53.164;5.430;2024-02-28T13:04:34;39.20;;;32.13;;
51618;SDS011;38518;53.164;5.430;2024-02-28T13:07:00;38.47;;;31.77;;
51618;SDS011;38518;53.164;5.430;2024-02-28T13:09:27;32.70;;;29.13;;
51618;SDS011;38518;53.164;5.430;2024-02-28T13:11:53;35.72;;;27.42;;
51618;SDS011;38518;53.164;5.430;2024-02-28T13:14:19;39.33;;;32.90;;
51618;SDS011;38518;53.164;5.430;2024-02-28T13:16:44;37.10;;;27.52;;
51618;SDS011;38518;53.164;5.430;2024-02-28T13:19:10;33.90;;;30.27;;
51618;SDS011;38518;53.164;5.430;2024-02-28T13:21:36;39.58;;;26.63;;
51618;SDS011;38518;53.164;5.430;2024-02-28T13:24:02;35.40;;;31.08;;
51618;SDS011;38518;53.164;5.430;2024-02-28T13:26:29;35.55;;;31.50;;
51618;SDS011;38518;53.164;5.430;2024-02-28T13:28:55;34.78;;;31.00;;
51618;SDS011;38518;53.164;5.430;2024-02-28T13:31:22;34.97;;;31.38;;
51618;SDS011;38518;53.164;5.430;2024-02-28T13:33:48;35.25;;;26.17;;
51618;SDS011;38518;53.164;5.430;2024-02-28T13:36:13;33.28;;;26.17;;
51618;SDS011;38518;53.164;5.430;2024-02-28T13:38:40;35.17;;;31.42;;
51618;SDS011;38518;53.164;5.430;2024-02-28T13:41:05;35.08;;;26.83;;
51618;SDS011;38518;53.164;5.430;2024-02-28T13:43:31;32.85;;;29.45;;
51618;SDS011;38518;53.164;5.430;2024-02-28T13:45:58;32.17;;;28.75;;
51618;SDS011;38518;53.164;5.430;2024-02-28T13:48:26;33.40;;;29.75;;
51618;SDS011;38518;53.164;5.430;2024-02-28T13:50:59;33.47;;;29.92;;
51618;SDS011;38518;53.164;5.430;2024-02-28T13:53:25;34.92;;;29.90;;
51618;SDS011;38518;53.164;5.430;2024-02-28T13:55:50;31.95;;;24.95;;
51618;SDS011;38518;53.164;5.430;2024-02-28T13:58:17;31.33;;;23.77;;
51618;SDS011;38518;53.164;5.430;2024-02-28T14:00:45;32.08;;;28.73;;
51618;SDS011;38518;53.164;5.430;2024-02-28T14:03:14;36.03;;;24.83;;
51618;SDS011;38518;53.164;5.430;2024-02-28T14:05:40;31.42;;;28.13;;
51618;SDS011;38518;53.164;5.430;2024-02-28T14:08:06;30.92;;;23.67;;
51618;SDS011;38518;53.164;5.430;2024-02-28T14:10:33;33.88;;;30.13;;
51618;SDS011;38518;53.164;5.430;2024-02-28T14:12:59;32.58;;;29.17;;
51618;SDS011;38518;53.164;5.430;2024-02-28T14:15:25;35.60;;;25.10;;
51618;SDS011;38518;53.164;5.430;2024-02-28T14:17:51;33.30;;;29.70;;
51618;SDS011;38518;53.164;5.430;2024-02-28T14:20:17;34.25;;;26.13;;
51618;SDS011;38518;53.164;5.430;2024-02-28T14:22:43;33.72;;;29.63;;